Nerstrand, Minnesota
Current Conditions -  °F | °C
As of 12:14 PM on Thursday 23 Oct 2014 (Local Time) from KSYN Reporting Station
Overcast Overcast  
Wind Chill: 55°   Ceiling: 600
Heat Index: 55°   Visibility: 7mi
Dew Point: 51°   Wind: 5mph
Humidity: 88%   Direction: 250°WSW
Pressure: 30.01"   Gusts: NA
Location:  44.34°N, 93.07°W
Report Text: KSYN 231714Z AUTO 25004KT 7SM OVC006 13/11 A3001 RMK AO2 T01270107
Loading
Personal Weather Stations






























Interactive Weather Map
Tropical Storm Tracking
New forecast layout! Learn more

10-Day Weather Forecast

Advertisements
Track Severe Weather on mobile